Time;durP1;ratioP1;P1;durP2;ratioP2;P2;SDS_P1;SDS_P2;PMS_P1;PMS_P2;Temp;Humidity;BMP_temperature;BMP_pressure;BME280_temperature;BME280_humidity;BME280_pressure;Samples;Min_cycle;Max_cycle;Signal;HPM_P1;HPM_P2
2021/12/25 00:02:08;;;;;;;8.32;7.53;;;;;;;-13.46;84.81;98155.66;6216042;23;20019;-77
2021/12/25 00:04:35;;;;;;;11.98;9.20;;;;;;;-13.40;83.75;98138.16;6240864;23;20016;-77
2021/12/25 00:07:01;;;;;;;6.65;6.05;;;;;;;-13.38;82.50;98138.19;6240808;23;20563;-76
2021/12/25 00:09:27;;;;;;;8.60;6.15;;;;;;;-13.36;82.83;98139.06;6241198;23;20094;-76
2021/12/25 00:11:53;;;;;;;9.85;5.63;;;;;;;-13.32;83.10;98138.28;6242356;23;20043;-76
2021/12/25 00:14:22;;;;;;;9.73;7.32;;;;;;;-13.29;81.87;98128.25;6240852;23;20020;-77
2021/12/25 00:16:48;;;;;;;7.20;6.30;;;;;;;-13.32;82.45;98118.19;6240713;23;20016;-76
2021/12/25 00:19:14;;;;;;;6.72;4.90;;;;;;;-13.25;83.08;98123.28;6214949;23;20097;-76
2021/12/25 00:21:40;;;;;;;6.55;5.20;;;;;;;-13.25;82.48;98105.72;6241936;23;20028;-76
2021/12/25 00:24:07;;;;;;;11.02;8.25;;;;;;;-13.25;82.64;98097.38;6215716;23;20020;-77
2021/12/25 00:26:47;;;;;;;8.75;7.45;;;;;;;-13.25;82.57;98098.19;6240576;23;20047;-76
2021/12/25 00:29:51;;;;;;;6.30;5.57;;;;;;;-13.22;82.83;98084.00;6242401;23;20019;-76
2021/12/25 00:32:25;;;;;;;11.00;7.28;;;;;;;-13.21;83.46;98075.63;6221453;23;20020;-76
2021/12/25 00:34:53;;;;;;;13.17;8.07;;;;;;;-13.22;82.91;98043.88;6201464;23;20031;-76
2021/12/25 00:37:19;;;;;;;13.18;8.98;;;;;;;-13.24;83.94;98036.31;6242701;23;20094;-77
2021/12/25 00:39:46;;;;;;;13.75;9.50;;;;;;;-13.21;83.80;98020.44;6217623;23;20027;-76
2021/12/25 00:42:12;;;;;;;15.80;9.40;;;;;;;-13.25;83.99;98022.09;6219794;23;20559;-77
2021/12/25 00:44:38;;;;;;;9.10;7.25;;;;;;;-13.22;84.25;98018.78;6222440;23;20016;-77
2021/12/25 00:47:04;;;;;;;11.93;9.77;;;;;;;-13.20;83.88;98002.91;6246086;23;20472;-77
2021/12/25 00:49:33;;;;;;;14.73;8.65;;;;;;;-13.24;84.83;97988.66;6244522;22;20557;-77
2021/12/25 00:51:59;;;;;;;10.60;9.40;;;;;;;-13.26;84.40;97993.66;6218092;23;20105;-76
2021/12/25 00:54:24;;;;;;;15.07;9.80;;;;;;;-13.24;85.62;97976.09;6242528;23;20404;-78
2021/12/25 00:56:51;;;;;;;9.75;8.77;;;;;;;-13.26;85.00;97982.78;6242321;23;20380;-76
2021/12/25 00:59:17;;;;;;;12.88;8.82;;;;;;;-13.30;84.74;97951.81;6217197;23;20020;-76
2021/12/25 01:01:44;;;;;;;9.43;8.40;;;;;;;-13.27;85.70;97961.88;6241694;23;20451;-76
2021/12/25 01:04:09;;;;;;;12.50;8.30;;;;;;;-13.28;86.05;97955.16;6216908;23;20091;-76
2021/12/25 01:06:35;;;;;;;12.25;7.22;;;;;;;-13.24;85.11;97951.00;6243799;23;20147;-76
2021/12/25 01:09:04;;;;;;;16.10;10.55;;;;;;;-13.19;85.53;97951.91;6193625;23;20119;-77
2021/12/25 01:11:32;;;;;;;12.25;8.00;;;;;;;-13.16;85.70;97936.88;6242335;23;20107;-77
2021/12/25 01:14:06;;;;;;;15.80;10.77;;;;;;;-13.23;84.96;97914.22;6216898;23;20024;-76
2021/12/25 01:30:15;;;;;;;9.40;6.47;;;;;;;-12.99;87.31;97885.09;6219007;23;20480;-76
2021/12/25 01:33:17;;;;;;;10.68;9.13;;;;;;;-12.93;87.09;97890.13;6221844;23;20535;-77
2021/12/25 01:50:08;;;;;;;13.30;10.88;;;;;;;-12.69;86.68;97860.97;6216878;23;20350;-75
2021/12/25 01:52:34;;;;;;;10.13;9.07;;;;;;;-12.65;86.11;97845.03;6191261;23;20479;-76
2021/12/25 01:55:03;;;;;;;13.23;8.30;;;;;;;-12.66;86.06;97855.94;6243280;23;20020;-75
2021/12/25 01:57:33;;;;;;;7.47;6.28;;;;;;;-12.66;85.90;97846.72;6216356;23;20022;-77
2021/12/25 02:00:00;;;;;;;16.38;9.30;;;;;;;-12.60;85.46;97845.91;6216672;23;20020;-76
2021/12/25 02:02:26;;;;;;;16.17;10.23;;;;;;;-12.58;85.33;97859.31;6216628;23;20086;-77
2021/12/25 02:04:52;;;;;;;12.90;10.40;;;;;;;-12.64;85.89;97821.63;6242302;23;20027;-77
2021/12/25 02:07:18;;;;;;;7.18;6.50;;;;;;;-12.55;86.02;97834.19;6216724;23;20012;-77
2021/12/25 02:09:48;;;;;;;16.27;9.88;;;;;;;-12.59;85.20;97809.91;6218170;23;20020;-76
2021/12/25 02:12:15;;;;;;;13.43;9.30;;;;;;;-12.51;85.37;97819.16;6216558;23;20031;-75
2021/12/25 02:14:46;;;;;;;10.48;9.35;;;;;;;-12.49;86.12;97829.19;6217600;23;20020;-77
2021/12/25 02:17:28;;;;;;;;;;;;;;;-12.45;86.31;97823.34;6218894;23;20090;-77
2021/12/25 02:20:12;;;;;;;9.80;8.93;;;;;;;-12.43;85.61;97806.63;6217346;23;19915;-77
2021/12/25 02:22:39;;;;;;;13.45;9.18;;;;;;;-12.45;85.84;97805.75;6191559;23;20027;-78
2021/12/25 02:25:06;;;;;;;12.95;9.85;;;;;;;-12.41;86.27;97802.44;6219449;23;20020;-76
2021/12/25 02:27:32;;;;;;;16.25;13.20;;;;;;;-12.54;85.81;97750.50;6250225;23;20024;-77
2021/12/25 02:29:58;;;;;;;17.73;13.27;;;;;;;-12.43;85.04;97762.22;6197908;23;20020;-77
2021/12/25 02:32:24;;;;;;;17.88;9.32;;;;;;;-12.39;86.44;97780.66;6241287;23;20087;-76
2021/12/25 02:34:51;;;;;;;10.32;8.88;;;;;;;-12.39;86.66;97768.09;6191908;23;20114;-77
2021/12/25 02:37:17;;;;;;;13.98;10.25;;;;;;;-12.38;85.19;97758.06;6247751;23;20066;-77
2021/12/25 02:39:43;;;;;;;10.73;9.55;;;;;;;-12.40;86.69;97772.28;6144119;23;20024;-77
2021/12/25 02:42:09;;;;;;;11.50;9.00;;;;;;;-12.43;85.91;97756.38;6211003;23;20031;-77
2021/12/25 02:44:38;;;;;;;11.00;9.85;;;;;;;-12.38;85.84;97747.16;6180218;23;20040;-76
2021/12/25 02:47:10;;;;;;;9.90;8.23;;;;;;;-12.43;86.58;97723.72;6137626;23;20103;-76
2021/12/25 02:49:36;;;;;;;11.77;10.05;;;;;;;-12.37;86.40;97728.75;6114821;23;20100;-76
2021/12/25 02:52:05;;;;;;;17.20;11.65;;;;;;;-12.39;85.96;97725.38;6160719;23;20020;-76
2021/12/25 02:54:31;;;;;;;14.50;10.90;;;;;;;-12.38;85.38;97712.00;6185338;23;20025;-77
2021/12/25 02:56:57;;;;;;;15.75;13.05;;;;;;;-12.41;85.68;97695.25;6185952;23;20012;-76
2021/12/25 02:59:23;;;;;;;18.60;10.30;;;;;;;-12.36;85.97;97726.22;6184518;23;20025;-76
2021/12/25 03:01:52;;;;;;;17.83;12.88;;;;;;;-12.37;85.43;97703.63;6212724;23;20487;-76
2021/12/25 03:04:18;;;;;;;12.60;9.52;;;;;;;-12.36;85.25;97717.84;6188801;23;20019;-75
2021/12/25 03:06:44;;;;;;;9.43;8.13;;;;;;;-12.38;85.63;97696.91;6189471;23;20204;-76
2021/12/25 03:09:10;;;;;;;12.45;8.20;;;;;;;-12.30;84.83;97700.28;6214223;23;20024;-78
2021/12/25 03:11:36;;;;;;;10.10;8.07;;;;;;;-12.32;86.06;97686.88;6214928;23;20100;-78
2021/12/25 03:14:24;;;;;;;21.33;9.40;;;;;;;-12.27;84.81;97690.22;6165244;23;20032;-76
2021/12/25 03:16:50;;;;;;;13.77;8.85;;;;;;;-12.26;84.82;97681.84;6124790;23;20025;-77
2021/12/25 03:19:24;;;;;;;7.85;7.15;;;;;;;-12.25;84.88;97686.03;6210171;23;20099;-76
2021/12/25 03:21:51;;;;;;;15.13;12.00;;;;;;;-12.36;85.47;97675.13;6210477;23;20024;-77
2021/12/25 03:24:18;;;;;;;13.70;7.32;;;;;;;-12.25;85.86;97686.88;6136360;23;20111;-76
2021/12/25 03:26:44;;;;;;;9.20;8.32;;;;;;;-12.26;85.89;97651.69;6210010;23;20051;-76
2021/12/25 03:29:10;;;;;;;7.07;6.47;;;;;;;-12.17;85.24;97681.84;6185581;23;20040;-77
2021/12/25 03:31:38;;;;;;;9.65;8.30;;;;;;;-12.19;85.28;97654.19;6160637;23;20074;-76
2021/12/25 03:34:04;;;;;;;7.30;6.60;;;;;;;-12.18;85.45;97670.13;6160769;23;20119;-77
2021/12/25 03:36:32;;;;;;;4.68;4.35;;;;;;;-12.19;85.91;97669.28;6210610;23;20020;-77
2021/12/25 03:38:58;;;;;;;8.02;6.65;;;;;;;-12.13;86.87;97663.41;6225655;23;20020;-78
2021/12/25 03:41:25;;;;;;;10.45;9.23;;;;;;;-12.22;86.18;97633.25;6215140;23;20363;-77
2021/12/25 03:43:51;;;;;;;9.18;7.10;;;;;;;-12.10;85.91;97655.84;6190797;23;20102;-77
2021/12/25 03:46:18;;;;;;;12.18;10.73;;;;;;;-12.11;85.03;97641.63;6141839;23;20020;-77
2021/12/25 03:59:25;;;;;;;11.35;6.53;;;;;;;-12.02;87.09;97625.69;6215899;23;20082;-77
2021/12/25 04:01:57;;;;;;;6.18;5.65;;;;;;;-12.00;86.83;97621.47;6191225;23;20016;-75
2021/12/25 04:06:59;;;;;;;8.95;7.78;;;;;;;-11.97;86.50;97599.69;6243223;23;20020;-75
2021/12/25 04:09:27;;;;;;;12.40;4.75;;;;;;;-11.91;85.87;97602.16;6191199;23;20043;-76
2021/12/25 04:11:55;;;;;;;10.30;7.10;;;;;;;-11.88;86.57;97617.28;6244507;23;20016;-75
2021/12/25 04:14:22;;;;;;;6.45;5.85;;;;;;;-11.87;87.17;97603.84;6249978;23;20030;-75
2021/12/25 04:16:48;;;;;;;9.73;6.55;;;;;;;-11.85;87.76;97607.22;6232493;23;20075;-76
2021/12/25 04:19:14;;;;;;;11.48;9.48;;;;;;;-11.85;88.20;97593.78;6234158;23;20023;-75
2021/12/25 04:21:49;;;;;;;7.05;6.15;;;;;;;-11.80;87.09;97595.44;6256637;23;20031;-77
2021/12/25 04:24:15;;;;;;;12.13;10.85;;;;;;;-11.81;87.08;97575.34;6258625;23;20098;-76
2021/12/25 04:26:43;;;;;;;6.65;6.05;;;;;;;-11.75;88.06;97570.28;6259220;23;20371;-76
2021/12/25 05:02:04;;;;;;;7.40;5.93;;;;;;;-11.40;87.41;97512.19;6253645;23;20027;-77
2021/12/25 05:04:58;;;;;;;7.32;6.05;;;;;;;-11.35;87.25;97513.81;6215484;23;20036;-77
2021/12/25 05:07:44;;;;;;;7.35;5.68;;;;;;;-11.34;87.31;97515.50;6248832;23;20074;-76
2021/12/25 05:10:11;;;;;;;15.20;5.63;;;;;;;-11.28;87.41;97517.13;6249954;23;20020;-77
2021/12/25 05:12:37;;;;;;;6.60;5.95;;;;;;;-11.31;86.45;97512.97;6245108;23;20023;-76
2021/12/25 05:15:06;;;;;;;20.83;6.75;;;;;;;-11.26;87.32;97516.31;6217332;23;20031;-76
2021/12/25 05:17:32;;;;;;;7.13;6.43;;;;;;;-11.22;86.91;97507.06;6242378;23;20039;-77
2021/12/25 05:19:59;;;;;;;7.97;6.75;;;;;;;-11.22;87.13;97489.44;6217164;23;20043;-77
2021/12/25 05:22:26;;;;;;;7.78;7.07;;;;;;;-11.20;86.94;97487.72;6243164;23;20020;-77
2021/12/25 05:24:53;;;;;;;7.75;7.00;;;;;;;-11.16;87.17;97486.88;6193542;23;20024;-77
2021/12/25 05:27:20;;;;;;;6.00;5.30;;;;;;;-11.17;87.06;97491.06;6194746;23;20027;-77
2021/12/25 05:29:47;;;;;;;6.07;4.35;;;;;;;-11.13;87.71;97495.22;6144080;23;20031;-77
2021/12/25 05:32:18;;;;;;;5.53;4.85;;;;;;;-11.06;87.03;97498.53;6218446;23;20054;-77
2021/12/25 05:35:03;;;;;;;10.45;5.63;;;;;;;-11.05;87.49;97495.16;6221029;23;20073;-76
2021/12/25 05:37:48;;;;;;;8.00;6.88;;;;;;;-11.03;87.54;97472.50;6201493;22;20046;-76
2021/12/25 05:40:26;;;;;;;5.53;4.50;;;;;;;-11.00;88.69;97480.84;6249016;22;20023;-77
2021/12/25 05:42:52;;;;;;;5.28;4.78;;;;;;;-11.02;88.08;97480.00;6247363;22;20026;-77
2021/12/25 05:45:21;;;;;;;8.20;7.25;;;;;;;-10.97;87.96;97470.75;6223109;22;20015;-77
2021/12/25 05:48:16;;;;;;;6.78;6.22;;;;;;;-10.94;88.02;97465.69;6208738;22;20024;-76
2021/12/25 05:50:42;;;;;;;9.75;7.57;;;;;;;-10.96;88.00;97454.78;6274913;22;20047;-77
2021/12/25 05:53:32;;;;;;;7.32;5.35;;;;;;;-10.90;87.99;97448.88;6182569;22;20110;-77
2021/12/25 05:56:17;;;;;;;9.70;7.90;;;;;;;-10.80;88.00;97450.47;6251485;22;20463;-77
2021/12/25 05:58:54;;;;;;;5.38;4.97;;;;;;;-10.73;87.28;97447.84;6247073;22;20023;-77
2021/12/25 06:01:39;;;;;;;7.90;7.20;;;;;;;-10.60;87.10;97439.31;6198602;22;20767;-77
2021/12/25 06:04:06;;;;;;;11.93;8.55;;;;;;;-10.68;87.56;97433.53;6246767;22;20020;-74
2021/12/25 06:06:33;;;;;;;6.60;6.10;;;;;;;-10.68;87.98;97446.13;6221152;22;20430;-75
2021/12/25 06:08:59;;;;;;;6.82;5.47;;;;;;;-10.57;87.63;97440.13;6247086;22;20098;-74
2021/12/25 06:11:25;;;;;;;7.05;6.32;;;;;;;-10.62;87.57;97430.94;6246317;22;20016;-75
2021/12/25 06:14:08;;;;;;;5.50;5.10;;;;;;;-10.57;88.63;97436.75;6221812;22;20024;-74
2021/12/25 06:16:45;;;;;;;9.23;6.88;;;;;;;-10.55;87.67;97413.22;6237611;22;20019;-74
2021/12/25 06:19:25;;;;;;;7.20;6.50;;;;;;;-10.52;88.15;97425.78;6244638;22;20020;-74
2021/12/25 06:22:14;;;;;;;6.13;5.63;;;;;;;-10.50;88.61;97416.53;6215214;22;20511;-74
2021/12/25 06:25:19;;;;;;;3.88;3.58;;;;;;;-10.45;88.88;97415.63;6135874;23;20018;-74
2021/12/25 06:28:16;;;;;;;5.45;4.95;;;;;;;-10.42;88.87;97414.75;6119073;23;20017;-75
2021/12/25 06:31:06;;;;;;;8.52;7.68;;;;;;;-10.35;89.09;97421.41;6180646;22;20525;-74
2021/12/25 06:33:51;;;;;;;9.93;6.22;;;;;;;-10.31;89.09;97411.28;6273138;22;20444;-75
2021/12/25 06:36:52;;;;;;;10.05;7.18;;;;;;;-10.25;88.84;97403.63;6239428;22;20515;-75
2021/12/25 06:39:35;;;;;;;13.55;7.45;;;;;;;-10.19;88.95;97401.03;6252737;22;20031;-75
2021/12/25 06:42:16;;;;;;;7.25;6.55;;;;;;;-10.21;88.76;97387.59;6269508;22;20023;-75
2021/12/25 06:44:43;;;;;;;7.85;6.07;;;;;;;-10.13;88.57;97400.91;6220297;22;20015;-75
2021/12/25 06:47:11;;;;;;;5.63;5.15;;;;;;;-10.15;88.62;97382.50;6244478;22;20051;-75
2021/12/25 06:49:40;;;;;;;;;;;;;;;-10.08;88.53;97389.06;6198597;22;20020;-75
2021/12/25 06:52:08;;;;;;;12.20;7.00;;;;;;;-10.04;88.43;97394.91;6271761;22;19922;-75
2021/12/25 06:54:50;;;;;;;16.58;11.95;;;;;;;-9.96;88.51;97407.41;6245057;22;20050;-75
2021/12/25 06:57:47;;;;;;;6.97;5.45;;;;;;;-10.01;88.15;97378.91;6254722;22;20024;-77
2021/12/25 07:00:15;;;;;;;4.03;3.65;;;;;;;-9.91;88.63;97406.47;6220263;22;20030;-74
2021/12/25 07:02:42;;;;;;;14.07;7.20;;;;;;;-9.88;88.35;97391.31;6243653;22;20024;-75
2021/12/25 07:05:26;;;;;;;6.13;5.63;;;;;;;-9.89;87.65;97379.56;6272286;22;20374;-76
2021/12/25 07:08:23;;;;;;;6.32;5.68;;;;;;;-9.85;87.83;97373.63;6245391;22;20608;-75
2021/12/25 07:11:09;;;;;;;10.27;6.25;;;;;;;-9.80;87.87;97364.28;6201466;22;20463;-76
2021/12/25 07:13:46;;;;;;;6.35;5.78;;;;;;;-9.78;87.97;97365.09;6244979;22;20084;-76
2021/12/25 07:16:35;;;;;;;3.53;3.33;;;;;;;-9.79;87.77;97360.91;6270899;22;20440;-79
2021/12/25 07:19:19;;;;;;;7.60;6.88;;;;;;;-9.76;87.81;97360.88;6202693;22;20534;-74
2021/12/25 07:22:03;;;;;;;7.45;5.78;;;;;;;-9.71;88.30;97359.09;6226685;22;20486;-75
2021/12/25 07:24:45;;;;;;;16.08;12.07;;;;;;;-9.66;88.30;97367.44;6247436;22;20015;-74
2021/12/25 07:27:39;;;;;;;9.10;6.72;;;;;;;-9.61;88.31;97355.56;6271772;22;20019;-75
2021/12/25 07:30:06;;;;;;;10.60;7.28;;;;;;;-9.59;88.15;97355.56;6270542;22;20019;-75
2021/12/25 07:32:32;;;;;;;8.10;7.00;;;;;;;-9.58;87.97;97360.56;6244195;22;20114;-74
2021/12/25 07:34:58;;;;;;;8.95;4.53;;;;;;;-9.61;88.35;97340.44;6271962;22;20046;-76
2021/12/25 07:37:25;;;;;;;7.55;4.90;;;;;;;-9.44;87.99;97349.41;6220004;22;20510;-76
2021/12/25 07:39:51;;;;;;;8.88;6.85;;;;;;;-9.39;87.85;97345.94;6245135;22;20081;-75
2021/12/25 07:42:17;;;;;;;10.57;7.53;;;;;;;-9.43;88.22;97344.34;6217029;22;20486;-76
2021/12/25 07:45:07;;;;;;;7.35;6.65;;;;;;;-9.37;87.93;97333.31;6224122;22;20020;-76
2021/12/25 07:47:35;;;;;;;5.80;5.30;;;;;;;-9.29;87.78;97347.47;6244955;22;20055;-74
2021/12/25 07:50:02;;;;;;;16.33;11.45;;;;;;;-9.39;88.02;97314.84;6245206;22;20087;-77
2021/12/25 07:52:28;;;;;;;12.02;9.15;;;;;;;-9.14;88.21;97352.25;6194091;22;20026;-75
2021/12/25 07:54:54;;;;;;;14.90;11.15;;;;;;;-9.03;88.39;97352.06;6270806;22;20379;-75
2021/12/25 07:57:20;;;;;;;19.45;13.85;;;;;;;-8.97;88.13;97339.31;6245249;22;20019;-74
2021/12/25 07:59:47;;;;;;;19.38;13.63;;;;;;;-9.02;87.77;97339.41;6270432;22;20073;-75
2021/12/25 08:02:12;;;;;;;25.27;11.65;;;;;;;-9.02;88.31;97341.09;6242575;22;20565;-76
2021/12/25 08:04:39;;;;;;;15.57;9.68;;;;;;;-9.01;88.26;97328.44;6216920;22;20011;-74
2021/12/25 08:07:08;;;;;;;12.80;9.98;;;;;;;-8.89;88.02;97334.09;6241661;22;20332;-75
2021/12/25 08:09:35;;;;;;;6.13;5.55;;;;;;;-8.84;87.86;97330.66;6242534;22;20050;-76
2021/12/25 08:12:02;;;;;;;18.45;13.70;;;;;;;-8.79;87.96;97328.84;6241829;22;20081;-74
2021/12/25 08:14:29;;;;;;;24.27;13.98;;;;;;;-8.71;87.86;97327.03;6241624;22;20049;-75
2021/12/25 08:16:57;;;;;;;18.88;12.80;;;;;;;-8.61;87.29;97320.94;6240663;22;20102;-75
2021/12/25 08:19:29;;;;;;;16.55;11.35;;;;;;;-8.51;86.24;97321.56;6218182;22;20095;-75
2021/12/25 08:22:14;;;;;;;13.32;11.10;;;;;;;-8.41;86.29;97329.78;6267894;22;20020;-75
2021/12/25 08:24:58;;;;;;;21.63;14.82;;;;;;;-8.43;86.75;97331.50;6267536;22;20089;-74
2021/12/25 08:27:44;;;;;;;19.98;13.05;;;;;;;-8.39;86.79;97328.06;6220348;22;20364;-74
2021/12/25 08:30:30;;;;;;;20.63;12.15;;;;;;;-8.41;86.53;97325.56;6221343;22;20494;-74
2021/12/25 08:33:14;;;;;;;5.65;5.15;;;;;;;-8.40;86.46;97319.63;6241510;22;20047;-75
2021/12/25 08:35:59;;;;;;;22.35;12.88;;;;;;;-8.17;86.08;97316.56;6246256;22;20066;-75
2021/12/25 08:38:25;;;;;;;17.80;11.73;;;;;;;-8.13;85.92;97325.78;6219026;22;20450;-75
2021/12/25 08:40:54;;;;;;;15.75;12.23;;;;;;;-8.06;85.71;97327.31;6244094;22;20066;-74
2021/12/25 08:43:32;;;;;;;20.70;12.57;;;;;;;-8.05;85.72;97319.66;6271811;22;20458;-74
2021/12/25 08:46:04;;;;;;;15.40;11.43;;;;;;;-8.01;85.65;97325.50;6274605;22;20016;-74
2021/12/25 08:48:30;;;;;;;;;;;;;;;-7.96;85.58;97318.63;6272473;22;20027;-75
2021/12/25 08:50:58;;;;;;;12.25;8.48;;;;;;;-7.96;85.98;97314.41;6273732;22;19994;-75
2021/12/25 08:53:25;;;;;;;21.58;11.75;;;;;;;-7.84;85.41;97312.44;6273431;22;20022;-75
2021/12/25 08:55:52;;;;;;;10.10;8.88;;;;;;;-7.94;85.61;97291.59;6247330;22;20538;-74
2021/12/25 08:58:18;;;;;;;10.88;7.78;;;;;;;-7.65;84.47;97306.91;6250317;22;20019;-74
2021/12/25 09:00:47;;;;;;;24.00;13.20;;;;;;;-7.46;84.43;97303.06;6281986;22;20402;-74
2021/12/25 09:03:13;;;;;;;15.23;11.25;;;;;;;-7.51;83.58;97306.59;6282124;22;20043;-75
2021/12/25 09:05:42;;;;;;;20.83;15.25;;;;;;;-7.51;83.82;97307.41;6281085;22;20016;-75
2021/12/25 09:08:08;;;;;;;16.48;11.60;;;;;;;-7.55;83.82;97303.28;6279326;22;20423;-74
2021/12/25 09:10:35;;;;;;;12.68;9.52;;;;;;;-7.39;83.96;97307.09;6279512;22;20034;-74
2021/12/25 09:13:02;;;;;;;17.02;11.43;;;;;;;-7.53;84.05;97309.16;6229064;22;20074;-75
2021/12/25 09:15:29;;;;;;;22.13;14.95;;;;;;;-7.53;83.72;97304.09;6256754;22;20067;-75
2021/12/25 09:17:55;;;;;;;18.20;9.90;;;;;;;-7.66;84.09;97312.88;6229860;22;20016;-74
2021/12/25 09:20:21;;;;;;;18.25;13.07;;;;;;;-7.47;83.91;97308.19;6230737;22;20030;-74
2021/12/25 09:22:48;;;;;;;14.85;8.88;;;;;;;-7.47;84.00;97308.19;6257187;22;20015;-74
2021/12/25 09:25:15;;;;;;;14.63;10.82;;;;;;;-7.24;83.17;97305.91;6283745;22;20038;-75
2021/12/25 09:27:43;;;;;;;14.50;11.25;;;;;;;-7.30;82.89;97297.63;6281794;22;20039;-75
2021/12/25 09:30:10;;;;;;;19.27;12.27;;;;;;;-7.40;83.48;97299.56;6248204;22;20095;-74
2021/12/25 09:32:36;;;;;;;13.18;10.60;;;;;;;-7.31;83.50;97309.47;6273093;22;20016;-74
2021/12/25 09:35:02;;;;;;;10.77;7.97;;;;;;;-7.19;83.16;97298.16;6221198;22;20491;-74
2021/12/25 09:37:28;;;;;;;11.65;8.18;;;;;;;-7.30;82.95;97321.25;6273032;22;20015;-75
2021/12/25 09:39:54;;;;;;;20.20;11.88;;;;;;;-7.07;82.84;97325.75;6272692;22;20032;-74
2021/12/25 09:42:24;;;;;;;15.27;10.73;;;;;;;-7.21;82.54;97320.19;6245334;22;20015;-74
2021/12/25 09:44:52;;;;;;;12.98;10.15;;;;;;;-7.12;82.50;97332.59;6272632;22;20061;-75
2021/12/25 09:47:18;;;;;;;14.73;7.32;;;;;;;-7.16;82.71;97331.03;6245813;22;20399;-74
2021/12/25 09:49:44;;;;;;;15.93;9.90;;;;;;;-7.19;82.89;97323.50;6273151;22;20164;-75
2021/12/25 09:52:12;;;;;;;11.10;9.75;;;;;;;-7.19;82.88;97334.47;6247085;22;20083;-75
2021/12/25 09:54:38;;;;;;;20.45;13.80;;;;;;;-7.17;82.91;97327.69;6222220;22;20015;-74
2021/12/25 09:57:04;;;;;;;16.10;8.98;;;;;;;-7.22;82.93;97333.72;6247299;22;20020;-74
2021/12/25 09:59:30;;;;;;;11.05;7.80;;;;;;;-7.14;82.23;97331.81;6273328;22;20448;-75
2021/12/25 10:01:57;;;;;;;24.02;12.73;;;;;;;-7.11;82.57;97336.81;6247345;22;20102;-74
2021/12/25 10:04:45;;;;;;;14.57;10.80;;;;;;;-7.12;82.84;97350.34;6273338;22;20099;-77
2021/12/25 10:07:28;;;;;;;20.40;13.63;;;;;;;-7.10;82.66;97349.44;6273237;22;20023;-75
2021/12/25 10:10:06;;;;;;;13.23;9.32;;;;;;;-7.06;83.11;97356.09;6272860;22;20043;-76
2021/12/25 10:12:46;;;;;;;14.15;11.48;;;;;;;-7.06;82.38;97350.19;6220205;22;20028;-75
2021/12/25 10:15:17;;;;;;;12.70;9.77;;;;;;;-7.09;82.13;97347.72;6248306;22;20028;-76
2021/12/25 10:18:44;;;;;;;20.33;10.68;;;;;;;-6.98;81.51;97369.41;6221036;22;20023;-75
2021/12/25 10:21:22;;;;;;;12.60;9.00;;;;;;;-7.01;80.79;97353.44;6246337;22;20022;-75
2021/12/25 10:24:05;;;;;;;8.93;8.02;;;;;;;-6.85;80.95;97369.91;6270541;22;20104;-76
2021/12/25 10:26:32;;;;;;;13.80;9.90;;;;;;;-6.93;80.30;97379.41;6245326;22;20022;-74
2021/12/25 10:28:58;;;;;;;23.55;7.53;;;;;;;-6.95;80.82;97383.69;6245527;22;20042;-75
2021/12/25 10:31:32;;;;;;;8.63;7.82;;;;;;;-6.97;80.54;97388.00;6272486;22;20019;-74
2021/12/25 10:34:15;;;;;;;8.32;7.13;;;;;;;-6.99;79.88;97382.09;6245298;22;20374;-75
2021/12/25 10:36:42;;;;;;;8.30;7.50;;;;;;;-6.96;79.89;97403.16;6245220;22;20081;-75
2021/12/25 10:39:11;;;;;;;8.98;6.47;;;;;;;-6.93;80.33;97394.63;6245344;22;20024;-75
2021/12/25 10:41:50;;;;;;;13.70;12.27;;;;;;;-7.05;79.68;97400.84;6272217;22;20620;-74
2021/12/25 10:44:24;;;;;;;12.82;9.65;;;;;;;-6.98;79.54;97393.91;6272566;22;20022;-74
2021/12/25 10:46:57;;;;;;;18.58;12.63;;;;;;;-7.05;79.43;97395.78;6221573;22;20463;-76
2021/12/25 10:49:31;;;;;;;12.23;9.60;;;;;;;-7.05;79.96;97418.59;6247984;22;20073;-75
2021/12/25 10:52:11;;;;;;;8.35;7.57;;;;;;;-7.02;79.57;97425.28;6247361;22;20020;-74
2021/12/25 10:54:47;;;;;;;7.63;6.65;;;;;;;-7.00;79.00;97433.69;6272652;22;20093;-76
2021/12/25 10:57:30;;;;;;;8.13;7.32;;;;;;;-7.03;79.49;97441.34;6273390;22;20016;-75
2021/12/25 10:59:56;;;;;;;8.57;7.07;;;;;;;-7.00;79.04;97433.69;6274154;22;20039;-74
2021/12/25 11:02:45;;;;;;;10.82;8.57;;;;;;;-7.11;78.82;97422.97;6274688;22;20023;-74
2021/12/25 11:05:35;;;;;;;8.60;7.82;;;;;;;-7.09;77.41;97436.44;6265689;22;20098;-74
2021/12/25 11:08:23;;;;;;;7.82;7.03;;;;;;;-7.12;76.87;97439.03;6244322;22;20011;-74
2021/12/25 11:10:56;;;;;;;8.65;7.85;;;;;;;-7.19;77.12;97445.13;6270832;22;20027;-75
2021/12/25 11:13:22;;;;;;;7.88;7.22;;;;;;;-7.16;76.34;97448.41;6244016;22;20448;-75
2021/12/25 11:15:52;;;;;;;13.50;10.30;;;;;;;-7.15;76.02;97449.25;6270099;22;20019;-74
2021/12/25 11:18:19;;;;;;;9.65;8.68;;;;;;;-7.13;75.80;97480.47;6243726;22;20101;-73
2021/12/25 11:20:46;;;;;;;7.13;6.55;;;;;;;-7.15;75.38;97457.69;6271087;22;20104;-74
2021/12/25 11:23:14;;;;;;;6.32;5.05;;;;;;;-7.05;74.06;97483.63;6268479;22;20024;-74
2021/12/25 11:25:41;;;;;;;6.93;6.32;;;;;;;-7.02;73.50;97493.69;6269503;22;20031;-73
2021/12/25 11:28:09;;;;;;;7.13;6.43;;;;;;;-7.07;73.60;97496.38;6244625;22;20469;-73
2021/12/25 11:30:43;;;;;;;7.97;6.90;;;;;;;-7.10;73.95;97493.88;6194401;22;20412;-73
2021/12/25 11:33:09;;;;;;;6.03;5.53;;;;;;;-7.14;72.65;97497.38;6270448;22;20451;-74
2021/12/25 11:35:41;;;;;;;6.45;5.80;;;;;;;-7.20;74.04;97499.22;6242144;22;20019;-75
2021/12/25 11:38:08;;;;;;;8.50;6.47;;;;;;;-7.19;72.49;97511.00;6271508;22;20102;-74
2021/12/25 11:40:39;;;;;;;7.85;7.15;;;;;;;-7.23;73.69;97515.28;6271234;22;20046;-77
2021/12/25 11:43:05;;;;;;;6.97;6.40;;;;;;;-7.21;73.39;97522.88;6219951;22;20408;-74
2021/12/25 11:45:36;;;;;;;7.28;6.60;;;;;;;-7.25;73.73;97523.81;6244788;22;20094;-76
2021/12/25 11:48:12;;;;;;;8.30;7.60;;;;;;;-7.28;73.72;97516.28;6245279;22;20020;-75
2021/12/25 11:50:41;;;;;;;5.07;4.57;;;;;;;-7.29;74.11;97545.00;6242678;22;20054;-74
2021/12/25 11:53:42;;;;;;;7.30;6.65;;;;;;;-7.42;74.97;97525.00;6268238;22;20027;-74
2021/12/25 11:58:49;;;;;;;7.85;4.95;;;;;;;-7.28;75.29;97544.97;6244111;22;20080;-75
2021/12/25 12:01:38;;;;;;;8.45;7.57;;;;;;;-7.26;75.53;97560.16;6271292;22;20023;-75
2021/12/25 12:04:11;;;;;;;7.18;4.90;;;;;;;-7.11;75.43;97568.25;6271408;22;20027;-74
2021/12/25 12:06:46;;;;;;;6.00;5.53;;;;;;;-7.20;77.12;97570.16;6270127;22;20019;-74
2021/12/25 12:09:16;;;;;;;5.35;4.95;;;;;;;-7.31;78.28;97572.06;6270894;22;20019;-74
2021/12/25 12:12:04;;;;;;;4.53;4.13;;;;;;;-7.34;76.69;97584.81;6269898;22;20366;-74
2021/12/25 12:15:13;;;;;;;4.22;3.83;;;;;;;-7.46;77.11;97581.66;6269573;22;20114;-74
2021/12/25 12:18:29;;;;;;;7.30;5.40;;;;;;;-7.54;76.66;97598.72;6227579;22;20098;-74
2021/12/25 12:21:00;;;;;;;3.33;3.13;;;;;;;-7.55;76.82;97603.78;6269865;22;20424;-74
2021/12/25 12:26:13;;;;;;;3.58;3.28;;;;;;;-7.66;77.08;97596.44;6270709;22;20015;-74
2021/12/25 12:28:50;;;;;;;4.32;4.00;;;;;;;-7.69;76.97;97621.78;6272320;22;20530;-74
2021/12/25 12:31:35;;;;;;;3.70;3.40;;;;;;;-7.60;75.58;97641.88;6245868;22;20035;-75
2021/12/25 12:34:04;;;;;;;3.38;3.13;;;;;;;-7.67;74.45;97637.78;6273044;22;20027;-74
2021/12/25 12:36:29;;;;;;;4.10;3.80;;;;;;;-7.69;73.90;97626.03;6273905;22;20087;-74
2021/12/25 12:39:15;;;;;;;4.38;4.07;;;;;;;-7.71;73.65;97643.75;6250204;22;20019;-75
2021/12/25 12:41:52;;;;;;;2.58;2.38;;;;;;;-7.80;74.28;97656.59;6281557;22;20022;-74
2021/12/25 12:44:29;;;;;;;3.95;3.55;;;;;;;-7.74;73.77;97664.06;6254044;22;20054;-74
2021/12/25 12:47:01;;;;;;;3.08;2.50;;;;;;;-7.81;73.03;97670.09;6277757;22;20019;-75
2021/12/25 12:49:55;;;;;;;4.32;3.92;;;;;;;-7.85;73.43;97670.22;6252456;22;20019;-74
2021/12/25 12:52:24;;;;;;;3.45;3.13;;;;;;;-7.85;73.28;97671.00;6223758;22;20024;-75
2021/12/25 12:54:52;;;;;;;4.15;3.95;;;;;;;-7.78;73.57;97676.81;6283031;22;20093;-74
2021/12/25 12:57:25;;;;;;;2.42;2.33;;;;;;;-7.87;74.08;97687.09;6283651;22;20016;-74
2021/12/25 12:59:54;;;;;;;4.35;3.25;;;;;;;-7.86;75.67;97689.63;6281844;22;20046;-74
2021/12/25 13:02:21;;;;;;;4.28;3.38;;;;;;;-7.91;76.50;97706.56;6250148;22;20359;-74
2021/12/25 13:04:49;;;;;;;3.92;3.63;;;;;;;-7.97;77.43;97721.84;6221750;22;20016;-75
2021/12/25 13:07:17;;;;;;;2.65;2.45;;;;;;;-7.93;77.01;97715.88;6246561;22;20027;-75
2021/12/25 13:09:49;;;;;;;4.47;4.07;;;;;;;-8.00;76.67;97710.09;6273176;22;20058;-74